sensor_id;sensor_type;location;lat;lon;timestamp;P1;P2;P0
42410;PMS5003;28056;51.112;0.984;2022-10-31T00:00:59;6;4;
42410;PMS5003;28056;51.112;0.984;2022-10-31T00:03:27;5;5;
42410;PMS5003;28056;51.112;0.984;2022-10-31T00:05:54;5;5;
42410;PMS5003;28056;51.112;0.984;2022-10-31T00:08:22;6;6;
42410;PMS5003;28056;51.112;0.984;2022-10-31T00:10:50;7;7;
42410;PMS5003;28056;51.112;0.984;2022-10-31T00:13:17;7;6;
42410;PMS5003;28056;51.112;0.984;2022-10-31T00:15:45;7;7;
42410;PMS5003;28056;51.112;0.984;2022-10-31T00:18:12;3;3;
42410;PMS5003;28056;51.112;0.984;2022-10-31T00:20:40;7;5;
42410;PMS5003;28056;51.112;0.984;2022-10-31T00:23:08;4;4;
42410;PMS5003;28056;51.112;0.984;2022-10-31T00:25:37;6;6;
42410;PMS5003;28056;51.112;0.984;2022-10-31T00:28:07;10;6;
42410;PMS5003;28056;51.112;0.984;2022-10-31T00:30:37;9;6;
42410;PMS5003;28056;51.112;0.984;2022-10-31T00:33:04;10;5;
42410;PMS5003;28056;51.112;0.984;2022-10-31T00:35:32;7;4;
42410;PMS5003;28056;51.112;0.984;2022-10-31T00:38:00;8;6;
42410;PMS5003;28056;51.112;0.984;2022-10-31T00:40:27;5;5;
42410;PMS5003;28056;51.112;0.984;2022-10-31T00:42:55;5;4;
42410;PMS5003;28056;51.112;0.984;2022-10-31T00:45:22;7;6;
42410;PMS5003;28056;51.112;0.984;2022-10-31T00:47:50;7;4;
42410;PMS5003;28056;51.112;0.984;2022-10-31T00:50:17;7;5;
42410;PMS5003;28056;51.112;0.984;2022-10-31T00:52:45;5;5;
42410;PMS5003;28056;51.112;0.984;2022-10-31T00:55:13;5;5;
42410;PMS5003;28056;51.112;0.984;2022-10-31T00:57:40;6;6;
42410;PMS5003;28056;51.112;0.984;2022-10-31T01:00:10;4;4;
42410;PMS5003;28056;51.112;0.984;2022-10-31T01:04:47;4;4;
42410;PMS5003;28056;51.112;0.984;2022-10-31T01:07:14;7;5;
42410;PMS5003;28056;51.112;0.984;2022-10-31T01:09:42;4;3;
42410;PMS5003;28056;51.112;0.984;2022-10-31T01:12:10;5;5;
42410;PMS5003;28056;51.112;0.984;2022-10-31T01:14:37;5;3;
42410;PMS5003;28056;51.112;0.984;2022-10-31T01:17:08;4;4;
42410;PMS5003;28056;51.112;0.984;2022-10-31T01:19:36;5;3;
42410;PMS5003;28056;51.112;0.984;2022-10-31T01:22:03;6;6;
42410;PMS5003;28056;51.112;0.984;2022-10-31T01:24:31;5;5;
42410;PMS5003;28056;51.112;0.984;2022-10-31T01:26:59;6;5;
42410;PMS5003;28056;51.112;0.984;2022-10-31T01:29:26;3;3;
42410;PMS5003;28056;51.112;0.984;2022-10-31T01:31:54;4;4;
42410;PMS5003;28056;51.112;0.984;2022-10-31T01:34:21;6;4;
42410;PMS5003;28056;51.112;0.984;2022-10-31T01:36:49;10;6;
42410;PMS5003;28056;51.112;0.984;2022-10-31T01:39:16;3;3;
42410;PMS5003;28056;51.112;0.984;2022-10-31T01:41:45;5;3;
42410;PMS5003;28056;51.112;0.984;2022-10-31T01:45:19;5;5;
42410;PMS5003;28056;51.112;0.984;2022-10-31T01:47:47;6;3;
42410;PMS5003;28056;51.112;0.984;2022-10-31T01:50:21;6;5;
42410;PMS5003;28056;51.112;0.984;2022-10-31T01:52:53;6;6;
42410;PMS5003;28056;51.112;0.984;2022-10-31T01:55:23;5;3;
42410;PMS5003;28056;51.112;0.984;2022-10-31T01:57:56;5;4;
42410;PMS5003;28056;51.112;0.984;2022-10-31T02:00:27;4;4;
42410;PMS5003;28056;51.112;0.984;2022-10-31T02:02:54;7;6;
42410;PMS5003;28056;51.112;0.984;2022-10-31T02:05:23;5;5;
42410;PMS5003;28056;51.112;0.984;2022-10-31T02:07:54;6;5;
42410;PMS5003;28056;51.112;0.984;2022-10-31T02:10:24;9;4;
42410;PMS5003;28056;51.112;0.984;2022-10-31T02:12:54;4;4;
42410;PMS5003;28056;51.112;0.984;2022-10-31T02:15:25;4;3;
42410;PMS5003;28056;51.112;0.984;2022-10-31T02:17:52;4;4;
42410;PMS5003;28056;51.112;0.984;2022-10-31T02:20:20;5;5;
42410;PMS5003;28056;51.112;0.984;2022-10-31T02:22:56;4;4;
42410;PMS5003;28056;51.112;0.984;2022-10-31T02:25:53;5;5;
42410;PMS5003;28056;51.112;0.984;2022-10-31T02:28:40;4;2;
42410;PMS5003;28056;51.112;0.984;2022-10-31T02:31:24;6;4;
42410;PMS5003;28056;51.112;0.984;2022-10-31T02:34:01;5;3;
42410;PMS5003;28056;51.112;0.984;2022-10-31T02:36:39;7;4;
42410;PMS5003;28056;51.112;0.984;2022-10-31T02:39:11;3;3;
42410;PMS5003;28056;51.112;0.984;2022-10-31T02:41:46;5;4;
42410;PMS5003;28056;51.112;0.984;2022-10-31T02:44:20;4;3;
42410;PMS5003;28056;51.112;0.984;2022-10-31T02:46:57;4;4;
42410;PMS5003;28056;51.112;0.984;2022-10-31T02:49:31;6;4;
42410;PMS5003;28056;51.112;0.984;2022-10-31T02:52:12;6;5;
42410;PMS5003;28056;51.112;0.984;2022-10-31T02:54:40;4;4;
42410;PMS5003;28056;51.112;0.984;2022-10-31T02:57:08;3;3;
42410;PMS5003;28056;51.112;0.984;2022-10-31T02:59:36;4;4;
42410;PMS5003;28056;51.112;0.984;2022-10-31T03:02:12;10;3;
42410;PMS5003;28056;51.112;0.984;2022-10-31T03:05:00;9;5;
42410;PMS5003;28056;51.112;0.984;2022-10-31T03:07:40;5;4;
42410;PMS5003;28056;51.112;0.984;2022-10-31T03:10:14;6;5;
42410;PMS5003;28056;51.112;0.984;2022-10-31T03:12:49;4;4;
42410;PMS5003;28056;51.112;0.984;2022-10-31T03:15:25;4;4;
42410;PMS5003;28056;51.112;0.984;2022-10-31T03:17:57;7;4;
42410;PMS5003;28056;51.112;0.984;2022-10-31T03:20:32;3;3;
42410;PMS5003;28056;51.112;0.984;2022-10-31T03:23:04;6;6;
42410;PMS5003;28056;51.112;0.984;2022-10-31T03:25:35;5;5;
42410;PMS5003;28056;51.112;0.984;2022-10-31T03:28:04;4;3;
42410;PMS5003;28056;51.112;0.984;2022-10-31T03:30:33;4;4;
42410;PMS5003;28056;51.112;0.984;2022-10-31T03:33:05;12;6;
42410;PMS5003;28056;51.112;0.984;2022-10-31T03:35:36;6;4;
42410;PMS5003;28056;51.112;0.984;2022-10-31T03:38:08;5;5;
42410;PMS5003;28056;51.112;0.984;2022-10-31T03:40:37;5;4;
42410;PMS5003;28056;51.112;0.984;2022-10-31T03:43:09;9;5;
42410;PMS5003;28056;51.112;0.984;2022-10-31T03:45:43;3;3;
42410;PMS5003;28056;51.112;0.984;2022-10-31T03:48:13;5;4;
42410;PMS5003;28056;51.112;0.984;2022-10-31T03:50:44;8;4;
42410;PMS5003;28056;51.112;0.984;2022-10-31T03:53:16;8;5;
42410;PMS5003;28056;51.112;0.984;2022-10-31T03:55:50;5;5;
42410;PMS5003;28056;51.112;0.984;2022-10-31T03:58:23;5;3;
42410;PMS5003;28056;51.112;0.984;2022-10-31T04:00:55;3;3;
42410;PMS5003;28056;51.112;0.984;2022-10-31T04:03:27;8;4;
42410;PMS5003;28056;51.112;0.984;2022-10-31T04:05:58;5;3;
42410;PMS5003;28056;51.112;0.984;2022-10-31T04:08:29;4;4;
42410;PMS5003;28056;51.112;0.984;2022-10-31T04:10:59;6;5;
42410;PMS5003;28056;51.112;0.984;2022-10-31T04:13:29;8;5;
42410;PMS5003;28056;51.112;0.984;2022-10-31T04:16:00;5;5;
42410;PMS5003;28056;51.112;0.984;2022-10-31T04:18:28;6;4;
42410;PMS5003;28056;51.112;0.984;2022-10-31T04:21:00;4;3;
42410;PMS5003;28056;51.112;0.984;2022-10-31T04:23:30;2;2;
42410;PMS5003;28056;51.112;0.984;2022-10-31T04:25:59;3;3;
42410;PMS5003;28056;51.112;0.984;2022-10-31T04:28:26;6;4;
42410;PMS5003;28056;51.112;0.984;2022-10-31T04:30:55;3;2;
42410;PMS5003;28056;51.112;0.984;2022-10-31T04:33:22;8;6;
42410;PMS5003;28056;51.112;0.984;2022-10-31T04:35:50;5;5;
42410;PMS5003;28056;51.112;0.984;2022-10-31T04:38:18;2;2;
42410;PMS5003;28056;51.112;0.984;2022-10-31T04:40:45;4;4;
42410;PMS5003;28056;51.112;0.984;2022-10-31T04:43:13;5;3;
42410;PMS5003;28056;51.112;0.984;2022-10-31T04:45:41;5;4;
42410;PMS5003;28056;51.112;0.984;2022-10-31T04:48:08;5;5;
42410;PMS5003;28056;51.112;0.984;2022-10-31T04:50:39;3;3;
42410;PMS5003;28056;51.112;0.984;2022-10-31T04:53:07;3;3;
42410;PMS5003;28056;51.112;0.984;2022-10-31T04:55:35;4;2;
42410;PMS5003;28056;51.112;0.984;2022-10-31T04:58:02;4;4;
42410;PMS5003;28056;51.112;0.984;2022-10-31T05:00:30;5;3;
42410;PMS5003;28056;51.112;0.984;2022-10-31T05:02:58;6;3;
42410;PMS5003;28056;51.112;0.984;2022-10-31T05:05:26;8;8;
42410;PMS5003;28056;51.112;0.984;2022-10-31T05:07:55;2;2;
42410;PMS5003;28056;51.112;0.984;2022-10-31T05:10:24;4;4;
42410;PMS5003;28056;51.112;0.984;2022-10-31T05:12:55;5;3;
42410;PMS5003;28056;51.112;0.984;2022-10-31T05:15:24;3;3;
42410;PMS5003;28056;51.112;0.984;2022-10-31T05:17:53;4;4;
42410;PMS5003;28056;51.112;0.984;2022-10-31T05:20:22;9;8;
42410;PMS5003;28056;51.112;0.984;2022-10-31T05:22:52;6;4;
42410;PMS5003;28056;51.112;0.984;2022-10-31T05:25:22;6;4;
42410;PMS5003;28056;51.112;0.984;2022-10-31T05:27:52;4;4;
42410;PMS5003;28056;51.112;0.984;2022-10-31T05:30:21;10;6;
42410;PMS5003;28056;51.112;0.984;2022-10-31T05:32:50;7;5;
42410;PMS5003;28056;51.112;0.984;2022-10-31T05:35:19;5;5;
42410;PMS5003;28056;51.112;0.984;2022-10-31T05:37:48;4;4;
42410;PMS5003;28056;51.112;0.984;2022-10-31T05:40:16;5;3;
42410;PMS5003;28056;51.112;0.984;2022-10-31T05:42:45;7;5;
42410;PMS5003;28056;51.112;0.984;2022-10-31T05:45:13;5;4;
42410;PMS5003;28056;51.112;0.984;2022-10-31T05:47:42;6;4;
42410;PMS5003;28056;51.112;0.984;2022-10-31T05:50:16;11;5;
42410;PMS5003;28056;51.112;0.984;2022-10-31T05:52:43;6;5;
42410;PMS5003;28056;51.112;0.984;2022-10-31T05:55:11;7;5;
42410;PMS5003;28056;51.112;0.984;2022-10-31T05:57:39;5;5;
42410;PMS5003;28056;51.112;0.984;2022-10-31T06:00:06;8;8;
42410;PMS5003;28056;51.112;0.984;2022-10-31T06:02:35;5;5;
42410;PMS5003;28056;51.112;0.984;2022-10-31T06:05:08;6;6;
42410;PMS5003;28056;51.112;0.984;2022-10-31T06:07:35;5;5;
42410;PMS5003;28056;51.112;0.984;2022-10-31T06:10:04;9;6;
42410;PMS5003;28056;51.112;0.984;2022-10-31T06:12:33;6;4;
42410;PMS5003;28056;51.112;0.984;2022-10-31T06:15:01;5;5;
42410;PMS5003;28056;51.112;0.984;2022-10-31T06:17:29;4;4;
42410;PMS5003;28056;51.112;0.984;2022-10-31T06:19:56;10;5;
42410;PMS5003;28056;51.112;0.984;2022-10-31T06:22:24;5;5;
42410;PMS5003;28056;51.112;0.984;2022-10-31T06:24:52;8;6;
42410;PMS5003;28056;51.112;0.984;2022-10-31T06:27:19;8;6;
42410;PMS5003;28056;51.112;0.984;2022-10-31T06:29:47;5;5;
42410;PMS5003;28056;51.112;0.984;2022-10-31T06:32:15;11;6;
42410;PMS5003;28056;51.112;0.984;2022-10-31T06:34:43;8;8;
42410;PMS5003;28056;51.112;0.984;2022-10-31T06:37:11;4;4;
42410;PMS5003;28056;51.112;0.984;2022-10-31T06:39:39;6;6;
42410;PMS5003;28056;51.112;0.984;2022-10-31T06:42:06;6;5;
42410;PMS5003;28056;51.112;0.984;2022-10-31T06:44:34;8;8;
42410;PMS5003;28056;51.112;0.984;2022-10-31T06:47:02;5;5;
42410;PMS5003;28056;51.112;0.984;2022-10-31T06:49:29;10;8;
42410;PMS5003;28056;51.112;0.984;2022-10-31T06:51:57;5;5;
42410;PMS5003;28056;51.112;0.984;2022-10-31T06:54:24;10;10;
42410;PMS5003;28056;51.112;0.984;2022-10-31T06:56:52;6;5;
42410;PMS5003;28056;51.112;0.984;2022-10-31T06:59:20;5;5;
42410;PMS5003;28056;51.112;0.984;2022-10-31T07:01:47;5;4;
42410;PMS5003;28056;51.112;0.984;2022-10-31T07:04:15;6;6;
42410;PMS5003;28056;51.112;0.984;2022-10-31T07:06:43;8;5;
42410;PMS5003;28056;51.112;0.984;2022-10-31T07:09:10;10;8;
42410;PMS5003;28056;51.112;0.984;2022-10-31T07:11:38;6;6;
42410;PMS5003;28056;51.112;0.984;2022-10-31T07:14:06;8;5;
42410;PMS5003;28056;51.112;0.984;2022-10-31T07:16:33;5;5;
42410;PMS5003;28056;51.112;0.984;2022-10-31T07:19:01;5;5;
42410;PMS5003;28056;51.112;0.984;2022-10-31T07:21:28;6;5;
42410;PMS5003;28056;51.112;0.984;2022-10-31T07:23:56;9;9;
42410;PMS5003;28056;51.112;0.984;2022-10-31T07:26:23;6;5;
42410;PMS5003;28056;51.112;0.984;2022-10-31T07:28:51;9;6;
42410;PMS5003;28056;51.112;0.984;2022-10-31T07:31:18;8;8;
42410;PMS5003;28056;51.112;0.984;2022-10-31T07:33:46;10;9;
42410;PMS5003;28056;51.112;0.984;2022-10-31T07:36:13;10;9;
42410;PMS5003;28056;51.112;0.984;2022-10-31T07:38:41;6;6;
42410;PMS5003;28056;51.112;0.984;2022-10-31T07:41:09;6;6;
42410;PMS5003;28056;51.112;0.984;2022-10-31T07:43:36;8;5;
42410;PMS5003;28056;51.112;0.984;2022-10-31T07:46:04;8;8;
42410;PMS5003;28056;51.112;0.984;2022-10-31T07:48:32;9;9;
42410;PMS5003;28056;51.112;0.984;2022-10-31T07:50:59;8;6;
42410;PMS5003;28056;51.112;0.984;2022-10-31T07:53:26;9;5;
42410;PMS5003;28056;51.112;0.984;2022-10-31T07:55:54;6;6;
42410;PMS5003;28056;51.112;0.984;2022-10-31T07:58:21;6;6;
42410;PMS5003;28056;51.112;0.984;2022-10-31T08:00:49;10;9;
42410;PMS5003;28056;51.112;0.984;2022-10-31T08:03:17;13;9;
42410;PMS5003;28056;51.112;0.984;2022-10-31T08:05:45;6;6;
42410;PMS5003;28056;51.112;0.984;2022-10-31T08:08:13;6;5;
42410;PMS5003;28056;51.112;0.984;2022-10-31T08:10:42;9;8;
42410;PMS5003;28056;51.112;0.984;2022-10-31T08:13:10;8;5;
42410;PMS5003;28056;51.112;0.984;2022-10-31T08:15:39;5;5;
42410;PMS5003;28056;51.112;0.984;2022-10-31T08:18:07;6;6;
42410;PMS5003;28056;51.112;0.984;2022-10-31T08:20:39;6;6;
42410;PMS5003;28056;51.112;0.984;2022-10-31T08:23:06;8;8;
42410;PMS5003;28056;51.112;0.984;2022-10-31T08:25:37;6;6;
42410;PMS5003;28056;51.112;0.984;2022-10-31T08:28:04;12;9;
42410;PMS5003;28056;51.112;0.984;2022-10-31T08:30:34;9;9;
42410;PMS5003;28056;51.112;0.984;2022-10-31T08:33:03;12;10;
42410;PMS5003;28056;51.112;0.984;2022-10-31T08:35:32;13;11;
42410;PMS5003;28056;51.112;0.984;2022-10-31T08:37:59;11;11;
42410;PMS5003;28056;51.112;0.984;2022-10-31T08:40:27;12;10;
42410;PMS5003;28056;51.112;0.984;2022-10-31T08:42:57;10;9;
42410;PMS5003;28056;51.112;0.984;2022-10-31T08:45:26;10;9;
42410;PMS5003;28056;51.112;0.984;2022-10-31T08:47:57;10;10;
42410;PMS5003;28056;51.112;0.984;2022-10-31T08:50:24;10;10;
42410;PMS5003;28056;51.112;0.984;2022-10-31T08:52:53;14;12;
42410;PMS5003;28056;51.112;0.984;2022-10-31T08:55:26;13;9;
42410;PMS5003;28056;51.112;0.984;2022-10-31T08:57:54;13;11;
42410;PMS5003;28056;51.112;0.984;2022-10-31T09:00:22;6;6;
42410;PMS5003;28056;51.112;0.984;2022-10-31T09:02:54;9;6;
42410;PMS5003;28056;51.112;0.984;2022-10-31T09:05:23;7;7;
42410;PMS5003;28056;51.112;0.984;2022-10-31T09:07:50;11;7;
42410;PMS5003;28056;51.112;0.984;2022-10-31T09:10:21;9;9;
42410;PMS5003;28056;51.112;0.984;2022-10-31T09:12:54;11;9;
42410;PMS5003;28056;51.112;0.984;2022-10-31T09:15:21;7;7;
42410;PMS5003;28056;51.112;0.984;2022-10-31T09:17:49;10;6;
42410;PMS5003;28056;51.112;0.984;2022-10-31T09:20:16;4;4;
42410;PMS5003;28056;51.112;0.984;2022-10-31T09:22:44;7;7;
42410;PMS5003;28056;51.112;0.984;2022-10-31T09:25:12;8;5;
42410;PMS5003;28056;51.112;0.984;2022-10-31T09:27:40;7;5;
42410;PMS5003;28056;51.112;0.984;2022-10-31T09:30:08;7;6;
42410;PMS5003;28056;51.112;0.984;2022-10-31T09:32:36;6;6;
42410;PMS5003;28056;51.112;0.984;2022-10-31T09:35:04;7;6;
42410;PMS5003;28056;51.112;0.984;2022-10-31T09:37:31;12;8;
42410;PMS5003;28056;51.112;0.984;2022-10-31T09:39:59;7;6;
42410;PMS5003;28056;51.112;0.984;2022-10-31T09:42:30;7;5;
42410;PMS5003;28056;51.112;0.984;2022-10-31T09:45:13;5;5;
42410;PMS5003;28056;51.112;0.984;2022-10-31T09:47:51;10;6;
42410;PMS5003;28056;51.112;0.984;2022-10-31T09:50:29;5;5;
42410;PMS5003;28056;51.112;0.984;2022-10-31T09:53:10;7;5;
42410;PMS5003;28056;51.112;0.984;2022-10-31T09:55:45;5;5;
42410;PMS5003;28056;51.112;0.984;2022-10-31T09:58:15;7;7;
42410;PMS5003;28056;51.112;0.984;2022-10-31T10:00:46;5;5;
42410;PMS5003;28056;51.112;0.984;2022-10-31T10:03:16;5;5;
42410;PMS5003;28056;51.112;0.984;2022-10-31T10:06:03;8;6;
42410;PMS5003;28056;51.112;0.984;2022-10-31T10:08:37;3;3;
42410;PMS5003;28056;51.112;0.984;2022-10-31T10:11:08;6;5;
42410;PMS5003;28056;51.112;0.984;2022-10-31T10:13:56;3;3;
42410;PMS5003;28056;51.112;0.984;2022-10-31T10:16:36;3;3;
42410;PMS5003;28056;51.112;0.984;2022-10-31T10:19:15;6;5;
42410;PMS5003;28056;51.112;0.984;2022-10-31T10:22:05;6;5;
42410;PMS5003;28056;51.112;0.984;2022-10-31T10:24:44;7;4;
42410;PMS5003;28056;51.112;0.984;2022-10-31T10:27:23;3;3;
42410;PMS5003;28056;51.112;0.984;2022-10-31T10:30:07;3;3;
42410;PMS5003;28056;51.112;0.984;2022-10-31T10:32:42;4;4;
42410;PMS5003;28056;51.112;0.984;2022-10-31T10:35:14;5;3;
42410;PMS5003;28056;51.112;0.984;2022-10-31T10:37:46;5;5;
42410;PMS5003;28056;51.112;0.984;2022-10-31T10:40:18;3;3;
42410;PMS5003;28056;51.112;0.984;2022-10-31T10:42:50;3;3;
42410;PMS5003;28056;51.112;0.984;2022-10-31T10:45:25;3;2;
42410;PMS5003;28056;51.112;0.984;2022-10-31T10:47:54;2;2;
42410;PMS5003;28056;51.112;0.984;2022-10-31T10:50:31;5;4;
42410;PMS5003;28056;51.112;0.984;2022-10-31T10:53:05;7;3;
42410;PMS5003;28056;51.112;0.984;2022-10-31T10:55:46;3;2;
42410;PMS5003;28056;51.112;0.984;2022-10-31T10:58:21;4;3;
42410;PMS5003;28056;51.112;0.984;2022-10-31T11:00:48;2;2;
42410;PMS5003;28056;51.112;0.984;2022-10-31T11:03:17;2;2;
42410;PMS5003;28056;51.112;0.984;2022-10-31T11:05:46;3;3;
42410;PMS5003;28056;51.112;0.984;2022-10-31T11:08:25;4;4;
42410;PMS5003;28056;51.112;0.984;2022-10-31T11:11:01;5;3;
42410;PMS5003;28056;51.112;0.984;2022-10-31T11:13:31;1;1;
42410;PMS5003;28056;51.112;0.984;2022-10-31T11:16:00;3;2;
42410;PMS5003;28056;51.112;0.984;2022-10-31T11:18:31;5;3;
42410;PMS5003;28056;51.112;0.984;2022-10-31T11:21:01;3;3;
42410;PMS5003;28056;51.112;0.984;2022-10-31T11:23:30;2;2;
42410;PMS5003;28056;51.112;0.984;2022-10-31T11:25:59;3;3;
42410;PMS5003;28056;51.112;0.984;2022-10-31T11:28:29;2;2;
42410;PMS5003;28056;51.112;0.984;2022-10-31T11:30:57;2;2;
42410;PMS5003;28056;51.112;0.984;2022-10-31T11:33:29;2;2;
42410;PMS5003;28056;51.112;0.984;2022-10-31T11:35:58;2;2;
42410;PMS5003;28056;51.112;0.984;2022-10-31T11:38:29;3;2;
42410;PMS5003;28056;51.112;0.984;2022-10-31T11:41:11;6;3;
42410;PMS5003;28056;51.112;0.984;2022-10-31T11:43:45;2;2;
42410;PMS5003;28056;51.112;0.984;2022-10-31T11:46:17;3;3;
42410;PMS5003;28056;51.112;0.984;2022-10-31T11:48:47;5;4;
42410;PMS5003;28056;51.112;0.984;2022-10-31T11:51:20;4;4;
42410;PMS5003;28056;51.112;0.984;2022-10-31T11:53:51;7;4;
42410;PMS5003;28056;51.112;0.984;2022-10-31T11:56:20;2;2;
42410;PMS5003;28056;51.112;0.984;2022-10-31T11:58:54;2;2;
42410;PMS5003;28056;51.112;0.984;2022-10-31T12:01:24;2;2;
42410;PMS5003;28056;51.112;0.984;2022-10-31T12:03:54;4;2;
42410;PMS5003;28056;51.112;0.984;2022-10-31T12:06:31;2;2;
42410;PMS5003;28056;51.112;0.984;2022-10-31T12:09:01;4;3;
42410;PMS5003;28056;51.112;0.984;2022-10-31T12:11:35;3;3;
42410;PMS5003;28056;51.112;0.984;2022-10-31T12:14:18;2;2;
42410;PMS5003;28056;51.112;0.984;2022-10-31T12:16:57;2;2;
42410;PMS5003;28056;51.112;0.984;2022-10-31T12:19:35;2;2;
42410;PMS5003;28056;51.112;0.984;2022-10-31T12:22:12;4;2;
42410;PMS5003;28056;51.112;0.984;2022-10-31T12:24:50;5;3;
42410;PMS5003;28056;51.112;0.984;2022-10-31T12:27:34;3;3;
42410;PMS5003;28056;51.112;0.984;2022-10-31T12:30:23;4;3;
42410;PMS5003;28056;51.112;0.984;2022-10-31T12:33:02;1;1;
42410;PMS5003;28056;51.112;0.984;2022-10-31T12:35:44;2;2;
42410;PMS5003;28056;51.112;0.984;2022-10-31T12:38:22;3;3;
42410;PMS5003;28056;51.112;0.984;2022-10-31T12:41:06;4;3;
42410;PMS5003;28056;51.112;0.984;2022-10-31T12:43:45;3;3;
42410;PMS5003;28056;51.112;0.984;2022-10-31T12:46:18;2;2;
42410;PMS5003;28056;51.112;0.984;2022-10-31T12:48:59;2;2;
42410;PMS5003;28056;51.112;0.984;2022-10-31T12:51:44;4;4;
42410;PMS5003;28056;51.112;0.984;2022-10-31T12:54:29;6;3;
42410;PMS5003;28056;51.112;0.984;2022-10-31T12:57:13;3;3;
42410;PMS5003;28056;51.112;0.984;2022-10-31T12:59:50;3;3;
42410;PMS5003;28056;51.112;0.984;2022-10-31T13:02:21;3;3;
42410;PMS5003;28056;51.112;0.984;2022-10-31T13:04:55;3;3;
42410;PMS5003;28056;51.112;0.984;2022-10-31T13:07:25;4;3;
42410;PMS5003;28056;51.112;0.984;2022-10-31T13:09:58;4;2;
42410;PMS5003;28056;51.112;0.984;2022-10-31T13:12:32;2;2;
42410;PMS5003;28056;51.112;0.984;2022-10-31T13:15:03;4;4;
42410;PMS5003;28056;51.112;0.984;2022-10-31T13:17:39;3;3;
42410;PMS5003;28056;51.112;0.984;2022-10-31T13:20:14;2;2;
42410;PMS5003;28056;51.112;0.984;2022-10-31T13:22:49;5;5;
42410;PMS5003;28056;51.112;0.984;2022-10-31T13:25:20;3;3;
42410;PMS5003;28056;51.112;0.984;2022-10-31T13:27:51;3;2;
42410;PMS5003;28056;51.112;0.984;2022-10-31T13:30:22;3;3;
42410;PMS5003;28056;51.112;0.984;2022-10-31T13:32:51;2;2;
42410;PMS5003;28056;51.112;0.984;2022-10-31T13:35:25;3;3;
42410;PMS5003;28056;51.112;0.984;2022-10-31T13:38:02;4;4;
42410;PMS5003;28056;51.112;0.984;2022-10-31T13:40:40;3;3;
42410;PMS5003;28056;51.112;0.984;2022-10-31T13:43:16;4;3;
42410;PMS5003;28056;51.112;0.984;2022-10-31T13:45:51;5;3;
42410;PMS5003;28056;51.112;0.984;2022-10-31T13:48:33;4;4;
42410;PMS5003;28056;51.112;0.984;2022-10-31T13:51:04;3;3;
42410;PMS5003;28056;51.112;0.984;2022-10-31T13:53:43;3;3;
42410;PMS5003;28056;51.112;0.984;2022-10-31T13:56:14;6;4;
42410;PMS5003;28056;51.112;0.984;2022-10-31T13:58:55;6;4;
42410;PMS5003;28056;51.112;0.984;2022-10-31T14:01:26;4;4;
42410;PMS5003;28056;51.112;0.984;2022-10-31T14:03:56;4;4;
42410;PMS5003;28056;51.112;0.984;2022-10-31T14:06:34;5;3;
42410;PMS5003;28056;51.112;0.984;2022-10-31T14:09:05;3;3;
42410;PMS5003;28056;51.112;0.984;2022-10-31T14:11:44;5;4;
42410;PMS5003;28056;51.112;0.984;2022-10-31T14:14:13;4;3;
42410;PMS5003;28056;51.112;0.984;2022-10-31T14:16:42;8;5;
42410;PMS5003;28056;51.112;0.984;2022-10-31T14:19:14;5;5;
42410;PMS5003;28056;51.112;0.984;2022-10-31T14:21:45;6;4;
42410;PMS5003;28056;51.112;0.984;2022-10-31T14:24:14;6;6;
42410;PMS5003;28056;51.112;0.984;2022-10-31T14:26:57;5;5;
42410;PMS5003;28056;51.112;0.984;2022-10-31T14:29:26;7;5;
42410;PMS5003;28056;51.112;0.984;2022-10-31T14:31:56;5;5;
42410;PMS5003;28056;51.112;0.984;2022-10-31T14:34:28;4;4;
42410;PMS5003;28056;51.112;0.984;2022-10-31T14:37:01;6;5;
42410;PMS5003;28056;51.112;0.984;2022-10-31T14:39:58;5;5;
42410;PMS5003;28056;51.112;0.984;2022-10-31T14:42:41;7;7;
42410;PMS5003;28056;51.112;0.984;2022-10-31T14:45:25;4;4;
42410;PMS5003;28056;51.112;0.984;2022-10-31T14:48:05;4;4;
42410;PMS5003;28056;51.112;0.984;2022-10-31T14:50:42;6;6;
42410;PMS5003;28056;51.112;0.984;2022-10-31T14:53:16;5;5;
42410;PMS5003;28056;51.112;0.984;2022-10-31T14:55:50;6;5;
42410;PMS5003;28056;51.112;0.984;2022-10-31T14:58:22;6;5;
42410;PMS5003;28056;51.112;0.984;2022-10-31T15:00:53;4;4;
42410;PMS5003;28056;51.112;0.984;2022-10-31T15:03:24;5;5;
42410;PMS5003;28056;51.112;0.984;2022-10-31T15:05:55;6;6;
42410;PMS5003;28056;51.112;0.984;2022-10-31T15:08:27;4;4;
42410;PMS5003;28056;51.112;0.984;2022-10-31T15:10:57;5;5;
42410;PMS5003;28056;51.112;0.984;2022-10-31T15:13:28;5;5;
42410;PMS5003;28056;51.112;0.984;2022-10-31T15:15:58;4;4;
42410;PMS5003;28056;51.112;0.984;2022-10-31T15:18:26;7;5;
42410;PMS5003;28056;51.112;0.984;2022-10-31T15:20:54;5;5;
42410;PMS5003;28056;51.112;0.984;2022-10-31T15:23:23;14;7;
42410;PMS5003;28056;51.112;0.984;2022-10-31T15:25:57;7;7;
42410;PMS5003;28056;51.112;0.984;2022-10-31T15:28:26;5;5;
42410;PMS5003;28056;51.112;0.984;2022-10-31T15:30:54;7;7;
42410;PMS5003;28056;51.112;0.984;2022-10-31T15:33:23;8;8;
42410;PMS5003;28056;51.112;0.984;2022-10-31T15:35:56;9;5;
42410;PMS5003;28056;51.112;0.984;2022-10-31T15:38:25;8;8;
42410;PMS5003;28056;51.112;0.984;2022-10-31T15:40:54;8;6;
42410;PMS5003;28056;51.112;0.984;2022-10-31T15:43:24;9;9;
42410;PMS5003;28056;51.112;0.984;2022-10-31T15:45:51;11;10;
42410;PMS5003;28056;51.112;0.984;2022-10-31T15:48:21;12;12;
42410;PMS5003;28056;51.112;0.984;2022-10-31T15:50:51;9;9;
42410;PMS5003;28056;51.112;0.984;2022-10-31T15:53:22;9;9;
42410;PMS5003;28056;51.112;0.984;2022-10-31T15:55:53;9;9;
42410;PMS5003;28056;51.112;0.984;2022-10-31T15:58:22;16;15;
42410;PMS5003;28056;51.112;0.984;2022-10-31T16:00:58;11;10;
42410;PMS5003;28056;51.112;0.984;2022-10-31T16:03:27;16;14;
42410;PMS5003;28056;51.112;0.984;2022-10-31T16:05:56;16;16;
42410;PMS5003;28056;51.112;0.984;2022-10-31T16:08:26;17;17;
42410;PMS5003;28056;51.112;0.984;2022-10-31T16:11:01;25;23;
42410;PMS5003;28056;51.112;0.984;2022-10-31T16:13:53;23;23;
42410;PMS5003;28056;51.112;0.984;2022-10-31T16:16:25;18;16;
42410;PMS5003;28056;51.112;0.984;2022-10-31T16:18:55;17;17;
42410;PMS5003;28056;51.112;0.984;2022-10-31T16:21:23;22;22;
42410;PMS5003;28056;51.112;0.984;2022-10-31T16:23:54;25;25;
42410;PMS5003;28056;51.112;0.984;2022-10-31T16:26:24;30;28;
42410;PMS5003;28056;51.112;0.984;2022-10-31T16:28:53;32;31;
42410;PMS5003;28056;51.112;0.984;2022-10-31T16:31:27;30;26;
42410;PMS5003;28056;51.112;0.984;2022-10-31T16:34:04;24;23;
42410;PMS5003;28056;51.112;0.984;2022-10-31T16:36:40;27;25;
42410;PMS5003;28056;51.112;0.984;2022-10-31T16:39:08;24;24;
42410;PMS5003;28056;51.112;0.984;2022-10-31T16:41:37;29;28;
42410;PMS5003;28056;51.112;0.984;2022-10-31T16:44:14;32;26;
42410;PMS5003;28056;51.112;0.984;2022-10-31T16:46:45;25;23;
42410;PMS5003;28056;51.112;0.984;2022-10-31T16:49:12;30;27;
42410;PMS5003;28056;51.112;0.984;2022-10-31T16:51:39;24;22;
42410;PMS5003;28056;51.112;0.984;2022-10-31T16:54:06;30;25;
42410;PMS5003;28056;51.112;0.984;2022-10-31T16:56:34;33;26;
42410;PMS5003;28056;51.112;0.984;2022-10-31T16:59:04;30;27;
42410;PMS5003;28056;51.112;0.984;2022-10-31T17:01:36;22;22;
42410;PMS5003;28056;51.112;0.984;2022-10-31T17:04:07;27;25;
42410;PMS5003;28056;51.112;0.984;2022-10-31T17:06:38;25;24;
42410;PMS5003;28056;51.112;0.984;2022-10-31T17:09:06;26;24;
42410;PMS5003;28056;51.112;0.984;2022-10-31T17:11:33;32;27;
42410;PMS5003;28056;51.112;0.984;2022-10-31T17:14:00;26;24;
42410;PMS5003;28056;51.112;0.984;2022-10-31T17:16:30;31;28;